Terminal Aerodrome Forecast
Issued by NWS Spokane, WA

Home | Current Version | Previous Version | Text Only | Print | Product List | Glossary On
Versions: 1 2 3 4 5 6 7 8 9 10 11 12 13 14 15 16 17 18 19 20 21 22 23 24 25 26 27 28 29 30
000
FTUS46 KOTX 252339
TAFGEG
TAF
KGEG 252339Z 2600/2624 24015G19KT P6SM VCSH SCT050 BKN090
     FM260200 22010KT P6SM VCSH SCT050 BKN090
     FM260800 20008KT P6SM SCT090
     FM261500 19012KT P6SM SCT150 BKN200
     FM262000 21014G22KT P6SM SCT050 BKN130=

USA.gov is the U.S. government's official web portal to all federal, state and local government web resources and services.